Nearby METAR Reports

Meteorological Terminal Air Report (METAR)

K3I2 - Pt Pleasant, West Virginia, USA
Distance from station: S 11mi, 18km
Updated: Sun, 21-Apr-2019 10:55am EDT
NOT Current
Overcast
Overcast
 Wind from calm
Wind: Calm
Barometer: 30.11 inHg , 1019.6 hPa
Clouds: Overcast
Visibility: 10 miles , 16 km
Cloud details: Mostly cloudy 2500 ft
Overcast 3100 ft
2019/04/21 14:55 K3I2 211455Z AUTO 00000KT 10SM BKN025 OVC031 A3011 RMK AO2 6//// PNO
KUNI - Athens, Ohio, USA
Distance from station: NW 13mi, 21km
Updated: Mon, 22-Apr-2019 12:15pm EDT
Clear
Clear
 Wind from calm
Wind: Calm
Temperature: 61°F , 16°C
Dew Point: 45°F , 7°C
Humidity: 55%
Barometer: 30.24 inHg , 1024 hPa
Clouds: Clear
Visibility: 10 miles , 16 km
2019/04/22 16:15 KUNI 221615Z AUTO 00000KT 10SM CLR 16/07 A3024 RMK AO2 T01590073
 
KPKB - Parkersburg, West Virginia, USA
Distance from station: ENE 40mi, 65km
Updated: Mon, 22-Apr-2019 11:53am EDT
Few Clouds
Few Clouds
 Wind from calm
Wind: Calm
Temperature: 61°F , 16°C
Dew Point: 43°F , 6°C
Humidity: 52%
Barometer: 30.29 inHg , 1025.7 hPa
Clouds: Few Clouds
Visibility: 10 miles , 16 km
Cloud details: Few Clouds 3200 ft
2019/04/22 15:53 KPKB 221553Z 00000KT 10SM FEW032 16/06 A3029 RMK AO2 SLP257 T01610061
KCRW - Charleston, West Virginia, USA
Distance from station: SSE 55mi, 88km
Updated: Mon, 22-Apr-2019 11:54am EDT
Few Clouds
Few Clouds
 Wind from calm
Wind: Calm
Temperature: 61°F , 16°C
Dew Point: 45°F , 7°C
Humidity: 55%
Barometer: 30.25 inHg , 1024.4 hPa
Clouds: Few Clouds
Visibility: 10 miles , 16 km
Cloud details: Few Clouds 3200 ft
2019/04/22 15:54 KCRW 221554Z 00000KT 10SM FEW032 16/07 A3025 RMK AO2 SLP243 T01560067
 
KHTS - Huntington, West Virginia, USA
Distance from station: SSW 55mi, 89km
Updated: Mon, 22-Apr-2019 11:51am EDT
Clear
Clear
 Wind from E
Wind: E 5 mph , 7 km/h
Temperature: 61°F , 16°C
Dew Point: 45°F , 7°C
Humidity: 55%
Barometer: 30.24 inHg , 1024 hPa
Clouds: Clear
Visibility: 10 miles , 16 km
2019/04/22 15:51 KHTS 221551Z 10004KT 10SM CLR 16/07 A3024 RMK AO2 SLP240 T01560067
KLHQ - Lancaster, Ohio, USA
Distance from station: NW 56mi, 91km
Updated: Mon, 22-Apr-2019 11:53am EDT
Clear
Clear
 Wind from ESE
Wind: ESE 8 mph , 13 km/h
Temperature: 61°F , 16°C
Dew Point: 46°F , 8°C
Humidity: 59%
Barometer: 30.24 inHg , 1024 hPa
Clouds: Clear
Visibility: 10 miles , 16 km
2019/04/22 15:53 KLHQ 221553Z AUTO 11007KT 10SM CLR 16/08 A3024 RMK AO2 SLP242 T01610083
 
KZZV - Zanesville, Ohio, USA
Distance from station: N 61mi, 99km
Updated: Mon, 22-Apr-2019 11:53am EDT
Clear
Clear
 Wind from varies
Wind: varies 5 mph , 7 km/h
Temperature: 61°F , 16°C
Dew Point: 45°F , 7°C
Humidity: 55%
Barometer: 30.25 inHg , 1024.4 hPa
Clouds: Clear
Visibility: 10 miles , 16 km
2019/04/22 15:53 KZZV 221553Z AUTO VRB04KT 10SM CLR 16/07 A3025 RMK AO2 SLP246 T01610072
KLCK - Rickenbacker Ang, Ohio, USA
Distance from station: NW 68mi, 110km
Updated: Mon, 22-Apr-2019 11:55am EDT

 
2019/04/22 15:55 KLCK 221555Z AUTO RMK AO2 PWINO TSNO
 
KVTA - Newark, Ohio, USA
Distance from station: NNW 68mi, 110km
Updated: Mon, 22-Apr-2019 11:54am EDT
Clear
Clear
 Wind from varies
Wind: varies 6 mph , 9 km/h
Temperature: 63°F , 17°C
Dew Point: 46°F , 8°C
Humidity: 56%
Barometer: 30.24 inHg , 1024 hPa
Clouds: Clear
Visibility: 10 miles , 16 km
2019/04/22 15:54 KVTA 221554Z AUTO VRB05KT 10SM CLR 17/08 A3024 RMK AO2 SLP239 T01670078